Time;durP1;ratioP1;P1;durP2;ratioP2;P2;SDS_P1;SDS_P2;PMS_P1;PMS_P2;Temp;Humidity;BMP_temperature;BMP_pressure;BME280_temperature;BME280_humidity;BME280_pressure;Samples;Min_cycle;Max_cycle;Signal;HPM_P1;HPM_P2
2023/05/20 00:00:13;;;;;;;0.60;0.60;;;13.50;99.90;;;;;;5082670;28;20036;-84
2023/05/20 00:02:39;;;;;;;0.20;0.20;;;13.50;99.90;;;;;;5082148;28;20744;-81
2023/05/20 00:05:05;;;;;;;0.20;0.20;;;13.50;99.90;;;;;;5080499;28;20023;-75
2023/05/20 00:07:31;;;;;;;0.35;0.35;;;13.40;99.90;;;;;;5080851;28;20041;-86
2023/05/20 00:09:57;;;;;;;0.20;0.20;;;13.40;99.90;;;;;;5081922;28;20016;-85
2023/05/20 00:12:23;;;;;;;0.20;0.20;;;13.40;99.90;;;;;;5082363;28;20047;-87
2023/05/20 00:14:48;;;;;;;0.20;0.20;;;13.40;99.90;;;;;;5081406;28;20028;-85
2023/05/20 00:17:14;;;;;;;0.73;0.70;;;13.30;99.90;;;;;;5082345;28;20649;-81
2023/05/20 00:19:40;;;;;;;0.20;0.20;;;13.30;99.90;;;;;;5082772;28;20364;-82
2023/05/20 00:22:06;;;;;;;0.10;0.10;;;13.30;99.90;;;;;;5082106;28;20517;-78
2023/05/20 00:24:33;;;;;;;0.20;0.20;;;13.30;99.90;;;;;;5082137;28;20020;-77
2023/05/20 00:26:58;;;;;;;1.55;1.45;;;13.30;99.90;;;;;;5082411;28;20051;-84
2023/05/20 00:29:24;;;;;;;0.20;0.20;;;13.30;99.90;;;;;;5082057;28;20606;-88
2023/05/20 00:31:50;;;;;;;0.32;0.32;;;13.20;99.90;;;;;;5080882;28;20035;-85
2023/05/20 00:34:16;;;;;;;0.20;0.20;;;13.20;99.90;;;;;;5090261;28;20079;-85
2023/05/20 00:36:41;;;;;;;3.20;3.03;;;13.20;99.90;;;;;;5091296;28;20020;-78
2023/05/20 00:39:07;;;;;;;0.10;0.10;;;13.20;99.90;;;;;;5088424;28;20036;-77
2023/05/20 00:41:34;;;;;;;0.20;0.20;;;13.20;99.90;;;;;;5091712;28;20020;-81
2023/05/20 00:43:59;;;;;;;0.25;0.25;;;13.20;99.90;;;;;;5084523;28;20372;-80
2023/05/20 00:46:26;;;;;;;0.38;0.38;;;13.10;99.90;;;;;;5082193;28;20284;-80
2023/05/20 00:48:52;;;;;;;0.32;0.32;;;13.10;99.90;;;;;;5081240;28;20033;-78
2023/05/20 00:51:19;;;;;;;0.20;0.20;;;13.10;99.90;;;;;;5080521;28;20032;-87
2023/05/20 00:53:45;;;;;;;0.60;0.60;;;13.00;99.90;;;;;;5079031;28;20402;-79
2023/05/20 00:56:11;;;;;;;0.20;0.20;;;13.10;99.90;;;;;;5080207;28;20040;-79
2023/05/20 00:58:37;;;;;;;6.70;6.22;;;;;;;;;;5079618;28;20080;-77
2023/05/20 01:01:04;;;;;;;0.20;0.20;;;13.00;99.90;;;;;;5080643;28;20024;-84
2023/05/20 01:03:30;;;;;;;0.47;0.47;;;13.00;99.90;;;;;;5080197;28;20241;-82
2023/05/20 01:05:55;;;;;;;4.28;4.03;;;13.00;99.90;;;;;;5080674;28;20031;-82
2023/05/20 01:08:23;;;;;;;0.20;0.20;;;13.00;99.90;;;;;;5080218;28;20043;-78
2023/05/20 01:11:00;;;;;;;0.20;0.20;;;13.00;99.90;;;;;;5079843;28;20052;-83
2023/05/20 01:13:32;;;;;;;0.20;0.20;;;13.00;99.90;;;;;;5079780;28;20024;-89
2023/05/20 01:16:00;;;;;;;0.30;0.30;;;13.00;99.90;;;;;;5079685;28;20020;-85
2023/05/20 01:18:29;;;;;;;0.20;0.20;;;13.00;99.90;;;;;;5078970;28;20024;-84
2023/05/20 01:20:54;;;;;;;0.25;0.25;;;13.00;99.90;;;;;;5079582;28;20199;-83
2023/05/20 01:23:21;;;;;;;0.20;0.20;;;13.00;99.90;;;;;;5079425;28;20020;-84
2023/05/20 01:25:46;;;;;;;0.30;0.30;;;12.90;99.90;;;;;;5079874;28;20020;-87
2023/05/20 01:28:16;;;;;;;0.20;0.20;;;12.90;99.90;;;;;;5080584;28;20350;-83
2023/05/20 01:30:49;;;;;;;0.20;0.20;;;12.90;99.90;;;;;;5079884;28;20095;-80
2023/05/20 01:33:19;;;;;;;0.20;0.20;;;12.80;99.90;;;;;;5079949;28;20036;-81
2023/05/20 01:35:45;;;;;;;0.20;0.20;;;12.90;99.90;;;;;;5080158;28;20630;-81
2023/05/20 01:38:12;;;;;;;0.22;0.22;;;12.80;99.90;;;;;;5079717;28;20105;-84
2023/05/20 01:40:40;;;;;;;0.20;0.20;;;12.70;99.90;;;;;;5079064;28;20024;-83
2023/05/20 01:43:07;;;;;;;0.47;0.47;;;12.70;99.90;;;;;;5081442;28;20020;-75
2023/05/20 01:45:32;;;;;;;0.10;0.10;;;12.70;99.90;;;;;;5081250;28;20020;-86
2023/05/20 01:47:58;;;;;;;0.20;0.20;;;12.70;99.90;;;;;;5080041;28;20062;-76
2023/05/20 01:50:25;;;;;;;0.20;0.20;;;12.70;99.90;;;;;;5079959;28;20428;-75
2023/05/20 01:52:51;;;;;;;1.95;1.85;;;12.70;99.90;;;;;;5079045;28;20040;-83
2023/05/20 01:55:17;;;;;;;0.65;0.65;;;12.60;99.90;;;;;;5089580;28;20232;-81
2023/05/20 01:57:42;;;;;;;0.20;0.20;;;12.60;99.90;;;;;;5094653;28;20028;-78
2023/05/20 02:00:10;;;;;;;0.20;0.20;;;12.60;99.90;;;;;;5096836;28;20020;-77
2023/05/20 02:02:39;;;;;;;0.20;0.20;;;12.60;99.90;;;;;;5096319;28;20016;-80
2023/05/20 02:05:04;;;;;;;0.20;0.20;;;12.50;99.90;;;;;;5097389;28;20035;-80
2023/05/20 02:07:30;;;;;;;0.20;0.20;;;12.50;99.90;;;;;;5094316;28;20478;-74
2023/05/20 02:09:56;;;;;;;0.47;0.47;;;12.50;99.90;;;;;;5093473;28;20025;-75
2023/05/20 02:12:23;;;;;;;1.30;1.25;;;12.50;99.90;;;;;;5096791;28;20020;-75
2023/05/20 02:14:49;;;;;;;0.80;0.80;;;12.40;99.90;;;;;;5093673;28;20142;-77
2023/05/20 02:17:16;;;;;;;0.10;0.10;;;12.30;99.90;;;;;;5092585;28;20528;-82
2023/05/20 02:19:43;;;;;;;3.13;2.83;;;12.30;99.90;;;;;;5086975;28;20674;-75
2023/05/20 02:22:09;;;;;;;0.40;0.40;;;12.30;99.90;;;;;;5093303;28;20016;-76
2023/05/20 02:24:35;;;;;;;0.35;0.35;;;12.30;99.90;;;;;;5088877;28;20252;-83
2023/05/20 02:27:02;;;;;;;0.20;0.20;;;12.10;99.90;;;;;;5090379;28;20026;-78
2023/05/20 02:29:27;;;;;;;0.20;0.20;;;12.20;99.90;;;;;;5104399;28;20418;-78
2023/05/20 02:31:53;;;;;;;1.13;1.13;;;12.20;99.90;;;;;;5090156;28;20032;-79
2023/05/20 02:34:20;;;;;;;0.20;0.20;;;12.10;99.90;;;;;;5087663;28;20035;-78
2023/05/20 02:36:45;;;;;;;0.65;0.65;;;12.10;99.90;;;;;;5087015;28;20570;-79
2023/05/20 02:39:13;;;;;;;0.10;0.10;;;12.10;99.90;;;;;;5094177;28;20035;-74
2023/05/20 02:41:38;;;;;;;0.35;0.35;;;12.10;99.90;;;;;;5104080;28;20048;-78
2023/05/20 02:44:04;;;;;;;0.20;0.20;;;12.00;99.90;;;;;;5103157;28;20081;-74
2023/05/20 02:46:30;;;;;;;4.28;4.03;;;12.10;99.90;;;;;;5100829;28;20034;-75
2023/05/20 02:48:56;;;;;;;0.10;0.10;;;12.00;99.90;;;;;;5106026;28;20251;-74
2023/05/20 02:51:23;;;;;;;0.20;0.20;;;12.00;99.90;;;;;;5109700;28;20212;-75
2023/05/20 02:53:48;;;;;;;1.15;1.15;;;11.80;99.90;;;;;;5107128;28;20028;-76
2023/05/20 02:56:20;;;;;;;0.68;0.68;;;12.00;99.90;;;;;;5108892;28;20269;-73
2023/05/20 02:58:46;;;;;;;0.20;0.20;;;12.00;99.90;;;;;;5107660;28;20047;-74
2023/05/20 03:01:12;;;;;;;0.43;0.43;;;11.90;99.90;;;;;;5111883;28;20076;-74
2023/05/20 03:03:39;;;;;;;0.10;0.10;;;11.90;99.90;;;;;;5111224;28;20024;-75
2023/05/20 03:06:06;;;;;;;0.93;0.93;;;11.90;99.90;;;;;;5110757;28;20039;-76
2023/05/20 03:08:33;;;;;;;0.73;0.73;;;11.90;99.90;;;;;;5109527;28;20008;-76
2023/05/20 03:10:59;;;;;;;0.20;0.20;;;11.90;99.90;;;;;;5110275;28;20030;-74
2023/05/20 03:13:25;;;;;;;0.20;0.20;;;11.80;99.90;;;;;;5109257;28;20039;-74
2023/05/20 03:15:51;;;;;;;0.20;0.20;;;11.80;99.90;;;;;;5109231;28;20093;-80
2023/05/20 03:18:17;;;;;;;0.20;0.20;;;11.70;99.90;;;;;;5111365;28;20081;-76
2023/05/20 03:20:42;;;;;;;0.20;0.20;;;11.80;99.90;;;;;;5108792;28;20024;-76
2023/05/20 03:23:09;;;;;;;0.30;0.30;;;11.80;99.90;;;;;;5112300;28;20024;-76
2023/05/20 03:25:35;;;;;;;0.20;0.20;;;11.70;99.90;;;;;;5113378;28;20047;-76
2023/05/20 03:28:01;;;;;;;2.15;2.05;;;11.70;99.90;;;;;;5098678;28;20219;-79
2023/05/20 03:30:29;;;;;;;0.20;0.20;;;11.70;99.90;;;;;;5112026;28;20058;-76
2023/05/20 03:33:09;;;;;;;0.10;0.10;;;11.70;99.90;;;;;;5086965;28;20037;-78
2023/05/20 03:35:36;;;;;;;0.38;0.38;;;11.70;99.90;;;;;;5085691;28;20087;-75
2023/05/20 03:38:09;;;;;;;0.20;0.20;;;11.60;99.90;;;;;;5073080;28;20021;-75
2023/05/20 03:40:35;;;;;;;0.20;0.20;;;;;;;;;;5072898;28;20024;-75
2023/05/20 03:43:01;;;;;;;0.10;0.10;;;11.70;99.90;;;;;;5066837;28;20032;-75
2023/05/20 03:45:27;;;;;;;0.20;0.20;;;11.70;99.90;;;;;;5065131;28;20094;-75
2023/05/20 03:47:54;;;;;;;0.20;0.20;;;11.80;99.90;;;;;;5049562;28;20726;-74
2023/05/20 03:50:20;;;;;;;0.20;0.20;;;14.50;99.90;;;;;;5048462;28;20634;-74
2023/05/20 03:52:46;;;;;;;0.20;0.20;;;11.90;99.90;;;;;;5064083;28;20637;-74
2023/05/20 03:55:12;;;;;;;0.50;0.50;;;11.90;99.90;;;;;;5063988;28;20040;-74
2023/05/20 03:57:38;;;;;;;0.10;0.10;;;12.00;99.90;;;;;;5062499;28;20104;-74
2023/05/20 04:00:13;;;;;;;0.20;0.20;;;12.00;99.90;;;;;;5062893;28;20137;-74
2023/05/20 04:02:39;;;;;;;0.20;0.20;;;12.00;99.90;;;;;;5059743;28;20118;-78
2023/05/20 04:05:07;;;;;;;0.10;0.10;;;12.00;99.90;;;;;;5062507;28;20546;-77
2023/05/20 04:07:33;;;;;;;0.20;0.20;;;12.10;99.90;;;;;;5060034;28;20153;-77
2023/05/20 04:10:00;;;;;;;0.32;0.32;;;12.10;99.90;;;;;;5067522;28;20701;-77
2023/05/20 04:12:29;;;;;;;0.10;0.10;;;12.20;99.90;;;;;;5080822;28;20016;-80
2023/05/20 04:15:00;;;;;;;0.20;0.20;;;12.10;99.90;;;;;;5079930;28;20319;-76
2023/05/20 04:17:29;;;;;;;0.20;0.20;;;12.20;99.90;;;;;;5081934;28;20024;-74
2023/05/20 04:19:58;;;;;;;0.20;0.20;;;12.30;99.90;;;;;;5063919;28;20132;-75
2023/05/20 04:22:25;;;;;;;0.20;0.20;;;12.30;99.90;;;;;;5080993;28;20490;-78
2023/05/20 04:24:51;;;;;;;1.00;1.00;;;12.40;99.90;;;;;;5080725;28;20028;-77
2023/05/20 04:27:16;;;;;;;0.68;0.68;;;12.50;99.90;;;;;;5080639;28;20028;-78
2023/05/20 04:29:44;;;;;;;0.20;0.20;;;12.30;99.90;;;;;;5080379;28;20020;-79
2023/05/20 04:32:13;;;;;;;0.20;0.20;;;12.70;99.90;;;;;;5080532;28;20020;-81
2023/05/20 04:34:39;;;;;;;0.30;0.30;;;12.80;99.90;;;;;;5080204;28;20100;-75
2023/05/20 04:37:08;;;;;;;1.23;1.20;;;13.00;99.90;;;;;;5080256;28;20027;-82
2023/05/20 04:39:35;;;;;;;0.22;0.22;;;13.00;99.90;;;;;;5079881;28;20105;-75
2023/05/20 04:42:01;;;;;;;0.95;0.95;;;13.10;99.90;;;;;;5079504;28;20106;-77
2023/05/20 04:44:28;;;;;;;1.00;1.00;;;13.20;99.90;;;;;;5079558;28;20023;-74
2023/05/20 04:46:56;;;;;;;3.13;2.97;;;13.30;99.90;;;;;;5079260;28;20254;-78
2023/05/20 04:49:24;;;;;;;0.20;0.20;;;13.30;99.90;;;;;;5079689;28;20589;-78
2023/05/20 04:51:54;;;;;;;0.95;0.95;;;13.30;99.90;;;;;;5079432;28;20394;-80
2023/05/20 04:54:20;;;;;;;0.95;0.95;;;13.80;99.90;;;;;;5078605;28;20553;-81
2023/05/20 04:56:46;;;;;;;0.50;0.50;;;13.50;99.90;;;;;;5079316;28;20085;-75
2023/05/20 04:59:12;;;;;;;1.77;1.67;;;13.50;99.90;;;;;;5078791;28;20287;-74
2023/05/20 05:01:38;;;;;;;1.23;1.17;;;13.50;99.90;;;;;;5078387;28;20470;-77
2023/05/20 05:04:04;;;;;;;0.20;0.20;;;13.50;99.90;;;;;;5079408;28;20027;-75
2023/05/20 05:06:30;;;;;;;0.20;0.20;;;13.70;99.90;;;;;;5079210;28;20303;-84
2023/05/20 05:08:56;;;;;;;0.20;0.20;;;13.60;99.90;;;;;;5077119;28;20032;-77
2023/05/20 05:11:22;;;;;;;0.28;0.28;;;13.70;99.90;;;;;;5079725;28;20019;-77
2023/05/20 05:13:47;;;;;;;1.58;1.58;;;13.70;99.90;;;;;;5079342;28;20429;-75
2023/05/20 05:16:13;;;;;;;1.67;1.65;;;13.80;99.90;;;;;;5079558;28;20028;-77
2023/05/20 05:18:39;;;;;;;0.50;0.50;;;13.90;99.90;;;;;;5079745;28;20027;-83
2023/05/20 05:21:05;;;;;;;0.63;0.63;;;13.90;99.90;;;;;;5079030;28;20442;-78
2023/05/20 05:23:31;;;;;;;1.38;1.30;;;13.90;99.90;;;;;;5079363;28;20030;-77
2023/05/20 05:25:57;;;;;;;0.40;0.40;;;14.00;99.90;;;;;;5078511;28;20035;-77
2023/05/20 05:28:24;;;;;;;0.50;0.50;;;14.10;99.90;;;;;;5078729;28;20035;-76
2023/05/20 05:30:50;;;;;;;0.32;0.32;;;14.10;99.90;;;;;;5078334;28;20398;-75
2023/05/20 05:33:16;;;;;;;0.82;0.77;;;14.20;99.90;;;;;;5078631;28;20032;-77
2023/05/20 05:35:42;;;;;;;0.20;0.20;;;14.30;99.90;;;;;;5078743;28;20115;-74
2023/05/20 05:38:09;;;;;;;0.73;0.73;;;14.40;99.90;;;;;;5078630;28;20092;-79
2023/05/20 05:40:35;;;;;;;0.75;0.75;;;14.50;99.90;;;;;;5077082;28;20017;-79
2023/05/20 05:43:00;;;;;;;0.20;0.20;;;14.30;99.90;;;;;;5078704;28;20490;-75
2023/05/20 05:45:26;;;;;;;0.25;0.25;;;14.40;99.90;;;;;;5078449;28;20103;-74
2023/05/20 05:47:52;;;;;;;0.20;0.20;;;14.40;99.90;;;;;;5078345;28;20103;-80
2023/05/20 05:50:18;;;;;;;0.20;0.20;;;14.50;99.90;;;;;;5078315;28;20287;-82
2023/05/20 05:52:44;;;;;;;1.58;1.58;;;14.40;99.90;;;;;;5077975;28;20463;-80
2023/05/20 05:55:10;;;;;;;0.77;0.77;;;14.40;99.90;;;;;;5077783;28;20055;-75
2023/05/20 05:57:36;;;;;;;0.60;0.60;;;14.50;99.90;;;;;;5078237;28;20276;-80
2023/05/20 06:00:05;;;;;;;0.30;0.30;;;14.60;99.90;;;;;;5077832;28;20277;-84
2023/05/20 06:02:34;;;;;;;0.20;0.20;;;14.70;99.90;;;;;;5077678;28;20023;-82
2023/05/20 06:05:02;;;;;;;2.63;2.50;;;16.10;99.90;;;;;;5077521;28;20339;-80
2023/05/20 06:07:28;;;;;;;0.20;0.20;;;14.80;99.90;;;;;;5078154;28;20012;-84
2023/05/20 06:09:53;;;;;;;0.35;0.35;;;14.90;99.90;;;;;;5077392;28;20643;-80
2023/05/20 06:12:19;;;;;;;0.20;0.20;;;14.90;99.90;;;;;;5076302;28;20047;-72
2023/05/20 06:14:45;;;;;;;0.20;0.20;;;15.10;99.90;;;;;;5077098;28;20035;-78
2023/05/20 06:17:11;;;;;;;0.13;0.13;;;15.20;99.90;;;;;;5076260;28;20225;-81
2023/05/20 06:19:36;;;;;;;0.20;0.20;;;15.30;99.90;;;;;;5076067;28;20479;-74
2023/05/20 06:22:02;;;;;;;0.82;0.82;;;15.40;99.90;;;;;;5077662;28;20026;-76
2023/05/20 06:24:28;;;;;;;0.20;0.20;;;15.40;99.90;;;;;;5077524;28;20020;-73
2023/05/20 06:26:53;;;;;;;0.50;0.50;;;15.30;99.90;;;;;;5077433;28;20020;-80
2023/05/20 06:29:19;;;;;;;0.30;0.30;;;15.30;99.90;;;;;;5077371;28;20048;-74
2023/05/20 06:31:45;;;;;;;0.20;0.20;;;15.40;99.90;;;;;;5077229;28;20028;-73
2023/05/20 06:34:11;;;;;;;0.35;0.35;;;15.30;99.90;;;;;;5077793;28;20343;-78
2023/05/20 06:36:36;;;;;;;0.25;0.25;;;15.30;99.90;;;;;;5077329;28;20220;-78
2023/05/20 06:39:04;;;;;;;0.20;0.20;;;15.40;99.90;;;;;;5077605;28;20020;-75
2023/05/20 06:41:31;;;;;;;0.20;0.20;;;15.40;99.90;;;;;;5077000;28;20031;-73
2023/05/20 06:43:56;;;;;;;1.75;1.75;;;15.60;99.90;;;;;;5077276;28;20024;-77
2023/05/20 06:46:22;;;;;;;0.20;0.20;;;15.70;99.90;;;;;;5077138;28;20024;-77
2023/05/20 06:48:48;;;;;;;0.30;0.30;;;15.80;99.90;;;;;;5077155;28;20417;-77
2023/05/20 06:51:14;;;;;;;3.00;2.83;;;15.80;99.90;;;;;;5077632;28;20201;-82
2023/05/20 06:53:39;;;;;;;0.20;0.20;;;15.70;99.90;;;;;;5075921;28;20370;-80
2023/05/20 06:56:05;;;;;;;0.10;0.10;;;15.70;99.90;;;;;;5076755;28;20055;-75
2023/05/20 06:58:32;;;;;;;0.63;0.63;;;15.90;99.90;;;;;;5076778;28;20020;-76
2023/05/20 07:00:57;;;;;;;0.45;0.45;;;16.00;99.90;;;;;;5076440;28;20300;-79
2023/05/20 07:03:23;;;;;;;0.20;0.20;;;16.20;99.90;;;;;;5077234;28;20141;-78
2023/05/20 07:05:50;;;;;;;0.88;0.88;;;16.30;99.90;;;;;;5078342;28;20028;-72
2023/05/20 07:08:15;;;;;;;3.42;3.22;;;16.50;99.90;;;;;;5077063;28;20043;-76
2023/05/20 07:10:42;;;;;;;1.25;1.25;;;16.60;99.90;;;;;;5076714;28;20028;-75
2023/05/20 07:13:08;;;;;;;0.85;0.85;;;17.00;99.90;;;;;;5078070;28;20547;-75
2023/05/20 07:15:34;;;;;;;0.93;0.93;;;16.90;99.90;;;;;;5077799;28;20113;-82
2023/05/20 07:17:59;;;;;;;0.25;0.25;;;17.10;99.90;;;;;;5075580;28;20079;-77
2023/05/20 07:20:25;;;;;;;0.40;0.40;;;17.40;99.90;;;;;;5078338;28;20020;-80
2023/05/20 07:22:51;;;;;;;0.30;0.30;;;18.50;99.90;;;;;;5077550;28;20028;-81
2023/05/20 07:25:17;;;;;;;0.20;0.20;;;17.80;99.90;;;;;;5080721;28;20028;-77
2023/05/20 07:27:42;;;;;;;0.10;0.10;;;17.40;99.90;;;;;;5080917;28;20692;-79
2023/05/20 07:30:08;;;;;;;0.45;0.45;;;17.50;99.90;;;;;;5080885;28;20032;-84
2023/05/20 07:32:34;;;;;;;0.73;0.73;;;17.40;99.90;;;;;;5080437;28;20020;-79
2023/05/20 07:35:00;;;;;;;0.30;0.30;;;17.50;99.90;;;;;;5080916;28;20028;-82
2023/05/20 07:37:26;;;;;;;1.58;1.48;;;17.50;99.90;;;;;;5080507;28;20029;-78
2023/05/20 07:39:52;;;;;;;0.98;0.98;;;17.60;99.90;;;;;;5080157;28;20528;-80
2023/05/20 07:42:18;;;;;;;2.08;1.25;;;17.60;99.90;;;;;;5080805;28;20661;-79
2023/05/20 07:44:43;;;;;;;2.42;2.25;;;17.70;99.90;;;;;;5080538;28;20048;-84
2023/05/20 07:47:09;;;;;;;0.47;0.47;;;;;;;;;;5080437;28;20024;-78
2023/05/20 07:49:35;;;;;;;0.28;0.28;;;18.00;99.90;;;;;;5080323;28;20031;-74
2023/05/20 07:52:01;;;;;;;3.35;1.63;;;18.10;99.90;;;;;;5080225;28;20032;-80
2023/05/20 07:54:27;;;;;;;0.10;0.10;;;18.20;99.90;;;;;;5079897;28;20047;-75
2023/05/20 07:56:52;;;;;;;0.93;0.90;;;18.20;99.90;;;;;;5080181;28;20728;-74
2023/05/20 07:59:21;;;;;;;6.82;6.40;;;18.20;99.90;;;;;;5080206;28;20016;-81
2023/05/20 08:01:47;;;;;;;0.77;0.77;;;18.20;99.90;;;;;;5080181;28;20020;-75
2023/05/20 08:04:12;;;;;;;0.10;0.10;;;18.10;99.90;;;;;;5079953;28;20025;-76
2023/05/20 08:06:38;;;;;;;0.50;0.50;;;18.40;99.90;;;;;;5080510;28;20023;-79
2023/05/20 08:09:04;;;;;;;0.17;0.17;;;18.60;99.90;;;;;;5080313;28;20312;-79
2023/05/20 08:11:30;;;;;;;1.98;1.88;;;18.70;99.90;;;;;;5080410;28;20234;-75
2023/05/20 08:13:55;;;;;;;1.52;1.42;;;18.60;99.90;;;;;;5079916;28;20126;-84
2023/05/20 08:16:21;;;;;;;0.45;0.45;;;18.80;99.90;;;;;;5081000;28;20643;-76
2023/05/20 08:18:47;;;;;;;0.10;0.10;;;19.20;99.90;;;;;;5078524;28;20669;-79
2023/05/20 08:21:13;;;;;;;0.10;0.10;;;19.50;99.90;;;;;;5079684;28;20530;-81
2023/05/20 08:23:39;;;;;;;0.85;0.85;;;19.70;99.90;;;;;;5079339;28;20020;-81
2023/05/20 08:26:05;;;;;;;0.22;0.22;;;19.80;99.90;;;;;;5080275;28;20560;-79
2023/05/20 08:28:31;;;;;;;1.95;1.10;;;20.10;99.90;;;;;;5079713;28;20032;-74
2023/05/20 08:30:57;;;;;;;0.10;0.10;;;20.30;99.90;;;;;;5079275;28;20191;-79
2023/05/20 08:33:23;;;;;;;0.47;0.47;;;20.70;99.90;;;;;;5079439;28;20502;-81
2023/05/20 08:35:49;;;;;;;0.20;0.20;;;20.80;99.90;;;;;;5079130;28;20732;-78
2023/05/20 08:38:14;;;;;;;0.10;0.10;;;20.80;99.90;;;;;;5082106;28;20023;-78
2023/05/20 08:40:40;;;;;;;1.52;1.27;;;21.10;99.90;;;;;;5081655;28;20080;-79
2023/05/20 08:43:06;;;;;;;0.30;0.30;;;21.20;99.90;;;;;;5080517;28;20077;-80
2023/05/20 08:45:33;;;;;;;0.30;0.30;;;21.40;99.90;;;;;;5080027;28;20031;-76
2023/05/20 08:48:00;;;;;;;0.20;0.20;;;21.80;99.90;;;;;;5080620;28;20019;-81
2023/05/20 08:50:27;;;;;;;0.30;0.30;;;22.10;99.90;;;;;;5081471;28;20031;-83
2023/05/20 08:52:53;;;;;;;0.10;0.10;;;21.20;97.90;;;;;;5082211;28;20044;-86
2023/05/20 08:55:41;;;;;;;0.75;0.75;;;22.20;99.90;;;;;;5080907;28;20066;-80
2023/05/20 08:58:08;;;;;;;0.17;0.17;;;22.60;97.10;;;;;;5082650;28;20104;-85
2023/05/20 09:00:34;;;;;;;0.10;0.10;;;22.90;97.00;;;;;;5083444;28;20028;-84
2023/05/20 09:03:00;;;;;;;2.75;2.55;;;22.90;93.70;;;;;;5083437;28;20016;-83
2023/05/20 09:05:26;;;;;;;5.88;2.45;;;22.80;91.50;;;;;;5080898;28;20653;-87
2023/05/20 09:07:52;;;;;;;0.57;0.57;;;22.60;92.90;;;;;;5081798;28;20103;-79
2023/05/20 09:10:19;;;;;;;0.10;0.10;;;22.80;91.00;;;;;;5083476;28;20077;-81
2023/05/20 09:12:45;;;;;;;1.38;1.33;;;22.60;92.00;;;;;;5080237;28;20058;-76
2023/05/20 09:15:11;;;;;;;0.55;0.55;;;22.90;92.40;;;;;;5080248;28;20055;-77
2023/05/20 09:17:37;;;;;;;0.10;0.10;;;23.10;90.90;;;;;;5081095;28;20020;-80
2023/05/20 09:20:10;;;;;;;0.10;0.10;;;23.30;91.20;;;;;;5086620;28;20020;-84
2023/05/20 09:22:37;;;;;;;0.10;0.10;;;23.70;91.30;;;;;;5088928;28;20012;-78
2023/05/20 09:25:04;;;;;;;2.55;1.48;;;23.70;87.30;;;;;;5083398;28;20106;-76
2023/05/20 09:27:30;;;;;;;0.10;0.10;;;23.70;89.80;;;;;;5082094;28;20679;-76
2023/05/20 09:29:56;;;;;;;1.10;0.63;;;23.80;90.10;;;;;;5079206;28;20099;-75
2023/05/20 09:32:25;;;;;;;0.10;0.10;;;24.00;85.40;;;;;;5082024;28;20713;-75
2023/05/20 09:34:51;;;;;;;2.05;1.92;;;24.30;86.30;;;;;;5083700;28;20477;-79
2023/05/20 09:37:20;;;;;;;0.10;0.10;;;24.60;84.10;;;;;;5081604;28;20022;-76
2023/05/20 09:39:59;;;;;;;0.10;0.10;;;24.50;80.80;;;;;;5080867;28;20020;-82
2023/05/20 09:42:43;;;;;;;0.40;0.38;;;24.10;81.50;;;;;;5080857;28;20038;-74
2023/05/20 09:45:09;;;;;;;0.22;0.22;;;24.00;82.50;;;;;;5078476;28;20028;-79
2023/05/20 09:47:40;;;;;;;0.68;0.68;;;23.40;94.00;;;;;;5080861;28;20586;-85
2023/05/20 09:50:07;;;;;;;0.10;0.10;;;23.30;96.90;;;;;;5080401;28;20027;-77
2023/05/20 09:52:37;;;;;;;0.30;0.28;;;23.40;98.60;;;;;;5079107;28;20672;-79
2023/05/20 09:55:05;;;;;;;1.60;1.52;;;23.30;99.90;;;;;;5078634;28;20113;-73
2023/05/20 09:57:37;;;;;;;0.77;0.77;;;22.80;99.90;;;;;;5078801;28;20031;-73
2023/05/20 10:00:05;;;;;;;2.55;2.45;;;23.10;99.90;;;;;;5080196;28;20047;-74
2023/05/20 10:02:32;;;;;;;0.20;0.20;;;22.90;99.90;;;;;;5080061;28;20686;-75
2023/05/20 10:05:00;;;;;;;0.20;0.20;;;23.00;99.90;;;;;;5080754;28;20047;-76
2023/05/20 10:07:46;;;;;;;0.10;0.10;;;22.90;99.90;;;;;;5079786;28;20055;-73
2023/05/20 10:10:23;;;;;;;0.15;0.15;;;23.10;99.90;;;;;;5079401;28;20706;-74
2023/05/20 10:12:54;;;;;;;0.90;0.90;;;23.00;99.90;;;;;;5079364;28;20262;-74
2023/05/20 10:15:38;;;;;;;0.90;0.63;;;23.10;99.90;;;;;;5079427;28;20028;-75
2023/05/20 10:18:23;;;;;;;0.93;0.93;;;20.70;99.20;;;;;;5079910;28;20681;-73
2023/05/20 10:20:50;;;;;;;0.10;0.10;;;23.30;99.60;;;;;;5064022;28;20043;-79
2023/05/20 10:23:29;;;;;;;0.82;0.82;;;23.00;99.90;;;;;;5078500;28;20030;-73
2023/05/20 10:25:57;;;;;;;0.35;0.30;;;23.50;99.50;;;;;;5082441;28;20012;-75
2023/05/20 10:28:31;;;;;;;0.22;0.22;;;23.70;99.90;;;;;;5080725;28;20028;-77
2023/05/20 10:30:59;;;;;;;3.58;1.35;;;24.20;99.50;;;;;;5084451;28;20019;-76
2023/05/20 10:33:28;;;;;;;0.20;0.20;;;24.50;96.20;;;;;;5084748;28;20646;-77
2023/05/20 10:35:58;;;;;;;0.38;0.32;;;24.70;95.00;;;;;;5084423;28;20660;-77
2023/05/20 10:38:24;;;;;;;8.05;0.73;;;24.80;94.60;;;;;;5078235;28;20637;-75
2023/05/20 10:40:50;;;;;;;0.55;0.55;;;25.00;91.10;;;;;;5076960;28;20300;-73
2023/05/20 10:43:24;;;;;;;0.10;0.10;;;25.30;88.30;;;;;;5078464;28;20020;-73
2023/05/20 10:45:59;;;;;;;0.30;0.30;;;25.90;85.50;;;;;;5076277;28;20107;-76
2023/05/20 10:48:30;;;;;;;0.20;0.20;;;26.30;80.80;;;;;;5077394;28;20454;-74
2023/05/20 10:51:04;;;;;;;0.10;0.10;;;26.30;75.50;;;;;;5076149;28;20035;-73
2023/05/20 10:53:39;;;;;;;0.65;0.65;;;26.80;75.70;;;;;;5077266;28;20222;-75
2023/05/20 10:56:05;;;;;;;1.52;1.52;;;27.20;72.50;;;;;;5077762;28;20044;-75
2023/05/20 10:58:38;;;;;;;1.15;1.10;;;27.50;69.50;;;;;;5079859;28;20021;-78
2023/05/20 11:01:04;;;;;;;;;;;28.10;69.00;;;;;;5080736;28;20714;-73
2023/05/20 11:03:30;;;;;;;1.75;1.38;;;28.20;66.20;;;;;;5080168;28;19940;-74
2023/05/20 11:05:56;;;;;;;0.85;0.50;;;28.10;64.80;;;;;;5081496;28;20016;-78
2023/05/20 11:08:26;;;;;;;1.08;0.68;;;28.20;65.80;;;;;;5081333;28;20588;-81
2023/05/20 11:10:54;;;;;;;0.10;0.10;;;28.10;63.40;;;;;;5081376;28;20086;-76
2023/05/20 11:13:20;;;;;;;0.25;0.25;;;27.10;64.20;;;;;;5080593;28;20024;-76
2023/05/20 11:15:48;;;;;;;0.10;0.10;;;26.60;65.90;;;;;;5081012;28;20043;-75
2023/05/20 11:18:14;;;;;;;0.25;0.25;;;26.50;66.20;;;;;;5080657;28;20017;-76
2023/05/20 11:20:39;;;;;;;0.90;0.73;;;26.30;66.20;;;;;;5079093;28;20032;-75
2023/05/20 11:23:10;;;;;;;0.20;0.20;;;26.30;66.30;;;;;;5080713;28;20698;-75
2023/05/20 11:25:36;;;;;;;0.63;0.57;;;26.10;66.10;;;;;;5080421;28;20020;-76
2023/05/20 11:28:02;;;;;;;0.17;0.17;;;26.10;66.60;;;;;;5080865;28;20034;-75
2023/05/20 11:30:29;;;;;;;0.45;0.45;;;26.30;66.80;;;;;;5080596;28;20020;-74
2023/05/20 11:32:59;;;;;;;1.05;1.00;;;26.50;65.90;;;;;;5080504;28;20032;-76
2023/05/20 11:35:30;;;;;;;0.32;0.32;;;26.70;66.50;;;;;;5080547;28;20757;-74
2023/05/20 11:37:59;;;;;;;2.10;1.40;;;26.80;66.30;;;;;;5080434;28;20054;-74
2023/05/20 11:40:26;;;;;;;0.35;0.30;;;26.60;66.60;;;;;;5080481;28;20044;-75
2023/05/20 11:42:56;;;;;;;0.10;0.10;;;26.80;65.90;;;;;;5080548;28;20900;-75
2023/05/20 11:45:22;;;;;;;1.15;1.08;;;26.60;66.90;;;;;;5080904;28;20024;-74
2023/05/20 11:48:01;;;;;;;1.17;0.95;;;26.40;66.50;;;;;;5079239;28;20024;-78
2023/05/20 11:50:27;;;;;;;1.67;1.58;;;26.60;67.00;;;;;;5080689;28;20028;-84
2023/05/20 11:53:01;;;;;;;0.93;0.60;;;26.50;67.80;;;;;;5080688;28;20085;-78
2023/05/20 11:55:26;;;;;;;4.20;3.90;;;26.80;67.20;;;;;;5080261;28;20052;-81
2023/05/20 11:57:55;;;;;;;0.10;0.10;;;26.90;66.50;;;;;;5079104;28;20035;-75
2023/05/20 12:00:21;;;;;;;3.10;2.05;;;26.70;66.50;;;;;;5079134;28;20051;-76
2023/05/20 12:02:47;;;;;;;0.22;0.20;;;26.60;66.70;;;;;;5078807;28;20193;-77
2023/05/20 12:05:13;;;;;;;0.10;0.10;;;26.80;67.30;;;;;;5080181;28;20619;-77
2023/05/20 12:07:39;;;;;;;1.00;0.63;;;26.80;66.60;;;;;;5080554;28;20020;-75
2023/05/20 12:10:05;;;;;;;0.30;0.30;;;26.60;64.50;;;;;;5080232;28;20021;-78
2023/05/20 12:12:31;;;;;;;0.20;0.20;;;26.80;65.40;;;;;;5079795;28;20008;-81
2023/05/20 12:14:57;;;;;;;0.30;0.30;;;26.80;66.00;;;;;;5080277;28;20638;-77
2023/05/20 12:17:22;;;;;;;0.20;0.20;;;27.20;63.10;;;;;;5080081;28;20795;-76
2023/05/20 12:19:48;;;;;;;0.10;0.10;;;27.20;64.20;;;;;;5080532;28;20028;-75
2023/05/20 12:22:14;;;;;;;0.20;0.20;;;27.50;62.70;;;;;;5080206;28;20103;-76
2023/05/20 12:24:40;;;;;;;0.63;0.63;;;27.70;63.30;;;;;;5078565;28;20020;-77
2023/05/20 12:27:06;;;;;;;0.57;0.57;;;27.60;64.30;;;;;;5080038;28;20027;-78
2023/05/20 12:29:32;;;;;;;0.10;0.10;;;28.40;62.20;;;;;;5080088;28;20015;-74
2023/05/20 12:31:59;;;;;;;0.28;0.28;;;28.00;61.60;;;;;;5080356;28;20024;-79
2023/05/20 12:34:25;;;;;;;0.10;0.10;;;27.70;61.70;;;;;;5079249;28;20540;-79
2023/05/20 12:36:51;;;;;;;1.77;1.65;;;27.50;61.60;;;;;;5079445;28;20025;-83
2023/05/20 12:39:17;;;;;;;0.45;0.45;;;27.50;61.00;;;;;;5079921;28;20082;-81
2023/05/20 12:41:43;;;;;;;0.20;0.20;;;27.50;60.80;;;;;;5080404;28;20027;-77
2023/05/20 12:44:10;;;;;;;0.10;0.10;;;27.50;60.40;;;;;;5080829;28;20051;-81
2023/05/20 12:46:36;;;;;;;0.10;0.10;;;27.40;60.00;;;;;;5081278;28;20024;-78